Time;durP1;ratioP1;P1;durP2;ratioP2;P2;SDS_P1;SDS_P2;PMS_P1;PMS_P2;Temp;Humidity;BMP_temperature;BMP_pressure;BME280_temperature;BME280_humidity;BME280_pressure;Samples;Min_cycle;Max_cycle;Signal;HPM_P1;HPM_P2
2023/12/10 00:01:40;;;;;;;7.13;1.83;;;;;;;8.52;74.86;99298.63;4989552;28;20045;-82
2023/12/10 00:04:07;;;;;;;11.10;1.67;;;;;;;8.69;73.78;99297.38;4985939;28;20045;-82
2023/12/10 00:06:34;;;;;;;12.90;2.25;;;;;;;8.66;73.97;99290.44;4990996;28;20050;-84
2023/12/10 00:09:02;;;;;;;10.13;1.67;;;;;;;8.59;74.67;99295.84;4983467;28;20054;-84
2023/12/10 00:11:29;;;;;;;15.00;1.85;;;;;;;8.59;74.64;99301.97;5001923;28;20050;-82
2023/12/10 00:13:56;;;;;;;11.13;1.63;;;;;;;8.62;74.33;99304.50;4991020;28;20132;-83
2023/12/10 00:16:23;;;;;;;7.78;1.55;;;;;;;8.54;74.83;99309.03;4987888;28;20065;-84
2023/12/10 00:18:50;;;;;;;13.48;2.05;;;;;;;8.52;74.68;99326.53;5009197;28;20057;-83
2023/12/10 00:21:17;;;;;;;4.88;1.40;;;;;;;8.63;73.94;99329.75;4992672;28;20042;-83
2023/12/10 00:23:44;;;;;;;15.77;1.90;;;;;;;8.62;73.68;99316.72;4992103;28;20066;-84
2023/12/10 00:26:11;;;;;;;16.52;2.10;;;;;;;8.59;73.89;99328.09;5007524;28;20076;-83
2023/12/10 00:28:38;;;;;;;15.77;2.40;;;;;;;8.61;73.45;99325.44;5000501;28;20050;-83
2023/12/10 00:31:07;;;;;;;11.57;1.60;;;;;;;8.63;73.15;99324.53;4995792;28;20054;-83
2023/12/10 00:33:34;;;;;;;11.50;1.90;;;;;;;8.56;73.81;99320.34;5015435;28;20050;-83
2023/12/10 00:36:02;;;;;;;10.60;1.35;;;;;;;8.52;73.34;99329.16;4994139;28;20053;-83
2023/12/10 00:38:29;;;;;;;12.65;2.03;;;;;;;8.55;73.04;99336.91;4995519;28;20057;-83
2023/12/10 00:40:57;;;;;;;12.88;1.95;;;;;;;8.59;72.72;99332.47;5000380;28;20048;-83
2023/12/10 00:43:23;;;;;;;12.40;2.20;;;;;;;8.60;72.26;99348.13;4985137;28;20053;-82
2023/12/10 00:45:52;;;;;;;9.07;1.67;;;;;;;8.56;72.02;99358.69;4997144;28;20138;-79
2023/12/10 00:48:20;;;;;;;11.43;2.13;;;;;;;8.58;72.16;99368.22;4989822;28;20045;-83
2023/12/10 00:50:47;;;;;;;9.38;1.95;;;;;;;8.60;71.68;99361.19;5000945;28;20042;-83
2023/12/10 00:53:14;;;;;;;8.88;1.83;;;;;;;8.65;70.81;99364.56;4993630;28;20067;-84
2023/12/10 00:55:41;;;;;;;14.18;2.53;;;;;;;8.67;70.74;99368.00;5000789;28;20042;-84
2023/12/10 00:58:09;;;;;;;12.93;2.05;;;;;;;8.67;70.94;99368.00;5002404;28;20489;-84
2023/12/10 01:00:36;;;;;;;16.75;2.28;;;;;;;8.66;70.37;99371.53;4999553;28;20062;-82
2023/12/10 01:03:06;;;;;;;11.82;2.10;;;;;;;8.69;70.44;99384.53;4998033;28;20141;-82
2023/12/10 01:05:33;;;;;;;12.73;2.88;;;;;;;8.52;71.35;99369.22;4995031;28;20513;-83
2023/12/10 01:08:00;;;;;;;9.35;1.75;;;;;;;8.51;71.79;99383.19;5003992;28;20038;-84
2023/12/10 01:10:27;;;;;;;19.77;2.08;;;;;;;8.61;71.32;99394.28;5006536;28;20057;-82
2023/12/10 01:12:53;;;;;;;11.20;1.80;;;;;;;8.53;71.78;99404.09;4991783;28;20061;-82
2023/12/10 01:15:29;;;;;;;11.23;2.40;;;;;;;8.64;70.90;99415.16;4983241;28;20038;-83
2023/12/10 01:18:03;;;;;;;12.35;2.17;;;;;;;8.59;71.53;99422.25;5002303;28;20563;-83
2023/12/10 01:20:31;;;;;;;9.80;1.90;;;;;;;8.63;71.00;99428.25;4999853;28;20046;-83
2023/12/10 01:22:58;;;;;;;15.90;2.53;;;;;;;8.63;71.09;99438.72;5003416;28;20054;-84
2023/12/10 01:25:25;;;;;;;13.82;2.42;;;;;;;8.54;71.71;99450.25;4994317;28;20057;-84
2023/12/10 01:27:53;;;;;;;14.73;3.25;;;;;;;8.48;71.92;99450.41;4967202;28;20050;-83
2023/12/10 01:30:23;;;;;;;14.18;1.95;;;;;;;8.57;71.25;99452.78;5012042;28;20488;-83
2023/12/10 01:32:52;;;;;;;13.70;2.08;;;;;;;8.45;71.66;99460.94;4997170;28;20050;-82
2023/12/10 01:35:20;;;;;;;10.55;2.17;;;;;;;8.49;71.22;99463.44;4997016;28;20045;-83
2023/12/10 01:37:47;;;;;;;13.52;1.80;;;;;;;8.45;71.54;99467.00;4989177;28;20050;-82
2023/12/10 01:40:15;;;;;;;11.95;2.38;;;;;;;8.42;71.82;99480.13;4976627;28;20049;-83
2023/12/10 01:42:41;;;;;;;11.55;1.58;;;;;;;8.33;72.05;99478.56;4996179;28;20539;-82
2023/12/10 01:45:09;;;;;;;10.60;2.20;;;;;;;8.29;72.23;99492.59;5000123;28;20053;-83
2023/12/10 01:47:39;;;;;;;12.07;2.70;;;;;;;8.43;71.50;99483.59;4989973;28;20050;-82
2023/12/10 01:50:11;;;;;;;8.35;1.92;;;;;;;8.17;73.29;99485.00;4992353;28;20074;-83
2023/12/10 01:52:43;;;;;;;11.80;1.23;;;;;;;8.14;73.38;99485.03;4991523;28;20057;-83
2023/12/10 01:55:10;;;;;;;9.38;1.70;;;;;;;8.22;72.48;99496.22;4995862;28;20041;-83
2023/12/10 01:57:39;;;;;;;14.13;2.30;;;;;;;8.08;72.95;99495.63;4995877;28;20049;-84
2023/12/10 02:00:07;;;;;;;10.10;1.85;;;;;;;7.96;73.30;99500.19;4995574;28;20061;-83
2023/12/10 02:02:35;;;;;;;6.80;1.77;;;;;;;8.12;72.65;99505.13;4998596;28;20042;-83
2023/12/10 02:05:04;;;;;;;14.27;1.88;;;;;;;8.11;73.74;99513.84;4996108;28;20061;-82
2023/12/10 02:07:32;;;;;;;9.82;1.33;;;;;;;7.93;74.77;99538.59;4985463;28;20038;-82
2023/12/10 02:09:59;;;;;;;5.20;1.50;;;;;;;7.74;77.25;99540.69;4980702;28;20056;-81
2023/12/10 02:12:30;;;;;;;9.35;1.30;;;;;;;7.68;77.20;99561.69;4990797;28;20054;-81
2023/12/10 02:14:57;;;;;;;11.23;2.17;;;;;;;7.56;78.75;99568.84;4995321;28;20046;-81
2023/12/10 02:17:24;;;;;;;8.50;1.40;;;;;;;7.57;78.10;99581.00;5004628;28;20068;-81
2023/12/10 02:19:51;;;;;;;13.73;2.03;;;;;;;7.52;78.87;99580.22;4983166;28;20110;-78
2023/12/10 02:22:21;;;;;;;8.20;1.00;;;;;;;7.38;80.70;99610.91;4993252;28;20046;-82
2023/12/10 02:24:51;;;;;;;9.10;1.40;;;;;;;7.16;82.69;99607.75;4993065;28;20058;-82
2023/12/10 02:27:20;;;;;;;5.80;0.85;;;;;;;7.12;80.27;99586.06;4967098;28;20056;-81
2023/12/10 02:29:49;;;;;;;3.83;0.90;;;;;;;7.11;80.29;99581.72;4990384;28;20141;-82
2023/12/10 02:32:16;;;;;;;5.22;0.70;;;;;;;7.08;79.53;99587.84;4989301;28;20074;-82
2023/12/10 02:34:43;;;;;;;7.97;0.80;;;;;;;6.92;80.39;99597.66;5010198;28;20044;-83
2023/12/10 02:37:10;;;;;;;5.13;1.25;;;;;;;6.93;80.09;99609.78;4998193;28;20181;-82
2023/12/10 02:39:37;;;;;;;6.38;1.42;;;;;;;6.81;80.91;99606.47;5000930;28;20145;-82
2023/12/10 02:42:04;;;;;;;3.40;0.60;;;;;;;6.84;80.96;99602.09;4991893;28;20053;-83
2023/12/10 02:44:31;;;;;;;5.40;0.80;;;;;;;6.84;80.75;99596.88;4999828;28;20520;-81
2023/12/10 02:46:57;;;;;;;4.10;0.57;;;;;;;6.78;80.87;99605.63;4998063;28;20062;-82
2023/12/10 02:49:24;;;;;;;5.53;0.40;;;;;;;6.63;82.12;99597.16;5000536;28;20049;-82
2023/12/10 02:51:51;;;;;;;7.03;0.73;;;;;;;6.65;81.81;99597.97;5005379;28;20082;-82
2023/12/10 02:54:18;;;;;;;5.35;0.75;;;;;;;6.57;83.26;99604.16;4985655;28;20521;-81
2023/12/10 02:56:45;;;;;;;4.05;1.63;;;;;;;6.59;82.16;99602.41;4999022;28;20038;-81
2023/12/10 02:59:12;;;;;;;1.75;0.65;;;;;;;6.59;82.61;99609.38;4995826;28;20080;-81
2023/12/10 03:01:39;;;;;;;5.97;0.93;;;;;;;6.59;82.45;99611.97;5004005;28;20046;-83
2023/12/10 03:04:06;;;;;;;6.82;1.38;;;;;;;6.83;80.91;99602.97;4996976;28;20042;-83
2023/12/10 03:06:33;;;;;;;8.80;1.45;;;;;;;6.87;80.81;99604.66;4995388;28;20100;-82
2023/12/10 03:09:00;;;;;;;6.63;1.33;;;;;;;6.85;80.65;99603.81;4977347;28;20062;-82
2023/12/10 03:11:26;;;;;;;7.07;1.17;;;;;;;6.76;81.77;99611.75;5002841;28;20057;-82
2023/12/10 03:13:53;;;;;;;7.32;1.08;;;;;;;7.05;79.12;99618.34;4989073;28;20048;-83
2023/12/10 03:16:20;;;;;;;8.50;1.40;;;;;;;7.00;79.73;99609.72;4996507;28;20041;-82
2023/12/10 03:18:47;;;;;;;7.28;1.23;;;;;;;6.94;80.00;99619.34;4985744;28;20054;-82
2023/12/10 03:21:14;;;;;;;7.85;1.60;;;;;;;7.06;79.21;99636.56;4990963;28;20053;-83
2023/12/10 03:23:41;;;;;;;11.00;2.00;;;;;;;7.02;80.06;99665.34;5031382;28;20568;-83
2023/12/10 03:26:08;;;;;;;7.18;1.02;;;;;;;7.03;80.32;99665.31;4998330;28;20046;-82
2023/12/10 03:28:34;;;;;;;3.10;1.13;;;;;;;6.87;81.81;99659.44;5002580;28;20112;-83
2023/12/10 03:31:01;;;;;;;7.60;1.30;;;;;;;6.66;82.78;99641.44;4997324;28;20127;-83
2023/12/10 03:33:28;;;;;;;8.10;1.05;;;;;;;6.64;82.53;99649.28;4976192;28;20050;-83
2023/12/10 03:35:55;;;;;;;5.70;1.40;;;;;;;6.68;82.57;99639.69;4985704;28;20050;-82
2023/12/10 03:38:22;;;;;;;7.95;1.45;;;;;;;6.61;82.92;99639.72;5003788;28;20540;-83
2023/12/10 03:40:49;;;;;;;7.95;1.00;;;;;;;6.78;81.74;99642.16;4994190;28;20050;-83
2023/12/10 03:43:16;;;;;;;10.68;1.90;;;;;;;6.75;81.69;99636.13;4985067;28;20129;-83
2023/12/10 03:45:43;;;;;;;5.60;1.20;;;;;;;6.76;81.94;99633.50;4998240;28;20057;-82
2023/12/10 03:48:10;;;;;;;7.00;1.85;;;;;;;6.76;81.86;99637.81;4984966;28;20242;-82
2023/12/10 03:50:37;;;;;;;9.18;1.48;;;;;;;6.71;82.12;99648.31;5010112;28;20050;-82
2023/12/10 03:53:04;;;;;;;9.30;1.73;;;;;;;6.83;80.87;99639.47;4978981;28;20042;-82
2023/12/10 03:55:31;;;;;;;11.02;1.58;;;;;;;6.94;80.08;99645.44;4995023;28;20046;-82
2023/12/10 03:57:58;;;;;;;5.00;1.38;;;;;;;7.24;77.15;99651.13;4996760;28;20409;-84
2023/12/10 04:00:25;;;;;;;11.45;1.85;;;;;;;7.13;78.33;99656.47;4992844;28;20042;-82
2023/12/10 04:02:51;;;;;;;6.03;1.10;;;;;;;7.21;77.53;99668.56;4979032;28;20074;-80
2023/12/10 04:05:20;;;;;;;8.93;1.15;;;;;;;7.32;76.33;99659.69;4992414;28;20077;-82
2023/12/10 04:07:49;;;;;;;10.20;1.48;;;;;;;7.21;77.11;99677.28;5001982;28;20068;-81
2023/12/10 04:10:16;;;;;;;8.65;1.63;;;;;;;7.02;78.20;99658.34;4993627;28;20112;-83
2023/12/10 04:12:43;;;;;;;7.68;0.95;;;;;;;7.36;75.94;99664.88;4996897;28;20050;-83
2023/12/10 04:15:10;;;;;;;8.55;2.25;;;;;;;7.29;76.06;99683.22;4988046;28;20077;-83
2023/12/10 04:17:37;;;;;;;6.70;1.30;;;;;;;7.18;76.47;99685.13;4999637;28;20045;-82
2023/12/10 04:20:06;;;;;;;8.23;1.70;;;;;;;7.21;75.91;99699.88;4997854;28;20137;-83
2023/12/10 04:22:33;;;;;;;6.50;1.35;;;;;;;7.05;77.19;99694.84;4990784;28;20046;-83
2023/12/10 04:25:00;;;;;;;6.15;1.52;;;;;;;7.15;76.04;99698.22;4991148;28;20060;-83
2023/12/10 04:27:26;;;;;;;7.05;1.23;;;;;;;7.22;75.32;99689.41;4997185;28;20061;-83
2023/12/10 04:29:53;;;;;;;7.00;1.50;;;;;;;7.08;76.26;99693.94;4987611;28;20061;-83
2023/12/10 04:32:20;;;;;;;5.95;1.00;;;;;;;7.33;74.62;99710.16;5006171;28;20046;-82
2023/12/10 04:34:47;;;;;;;8.18;1.40;;;;;;;7.19;75.18;99704.25;5001020;28;20042;-84
2023/12/10 04:37:14;;;;;;;11.25;1.35;;;;;;;7.26;74.11;99719.81;4988785;28;20420;-83
2023/12/10 04:39:41;;;;;;;7.50;1.10;;;;;;;7.20;74.62;99722.50;5000915;28;20057;-83
2023/12/10 04:42:07;;;;;;;9.15;1.52;;;;;;;7.35;73.33;99731.03;4992220;28;20046;-82
2023/12/10 04:44:34;;;;;;;7.28;1.25;;;;;;;7.34;73.54;99719.69;4990182;28;20490;-83
2023/12/10 04:47:01;;;;;;;5.63;1.40;;;;;;;7.29;73.86;99711.09;4998866;28;20050;-83
2023/12/10 04:49:29;;;;;;;11.00;1.27;;;;;;;7.21;73.94;99731.19;5000592;28;20052;-83
2023/12/10 04:51:56;;;;;;;9.02;1.55;;;;;;;7.15;74.42;99732.13;5004348;28;20050;-82
2023/12/10 04:54:26;;;;;;;5.85;1.33;;;;;;;7.11;74.73;99727.81;4994848;28;20053;-83
2023/12/10 04:56:53;;;;;;;6.63;1.38;;;;;;;7.21;73.97;99734.69;4988098;28;20046;-82
2023/12/10 04:59:20;;;;;;;7.60;1.20;;;;;;;7.20;74.02;99751.22;5000984;28;20041;-82
2023/12/10 05:01:47;;;;;;;8.98;1.52;;;;;;;7.32;73.16;99751.03;4996886;28;20046;-83
2023/12/10 05:04:14;;;;;;;10.98;1.85;;;;;;;7.29;73.28;99748.47;4996847;28;20056;-82
2023/12/10 05:06:41;;;;;;;4.95;1.20;;;;;;;7.30;73.45;99754.59;5000938;28;20133;-83
2023/12/10 05:09:10;;;;;;;9.70;1.90;;;;;;;7.21;73.59;99755.56;4999700;28;20104;-83
2023/12/10 05:11:37;;;;;;;12.40;1.90;;;;;;;7.37;72.70;99751.00;5004351;28;20117;-83
2023/12/10 05:14:05;;;;;;;10.30;1.40;;;;;;;7.34;72.99;99771.06;4989463;28;20041;-82
2023/12/10 05:16:32;;;;;;;7.30;1.17;;;;;;;7.22;74.08;99769.47;5011189;28;20044;-82
2023/12/10 05:18:59;;;;;;;13.02;1.75;;;;;;;7.45;72.46;99766.56;4998333;28;20045;-82
2023/12/10 05:21:26;;;;;;;7.90;1.30;;;;;;;7.60;71.41;99774.22;4995875;28;20041;-82
2023/12/10 05:23:53;;;;;;;10.20;2.28;;;;;;;7.47;71.95;99759.56;4992884;28;20049;-82
2023/12/10 05:26:19;;;;;;;13.43;1.90;;;;;;;7.61;71.23;99778.53;4998217;28;20062;-82
2023/12/10 05:28:46;;;;;;;5.00;1.52;;;;;;;7.44;71.87;99772.66;5003204;28;20046;-82
2023/12/10 05:31:14;;;;;;;7.95;1.77;;;;;;;7.49;71.73;99783.94;4996345;28;20050;-83
2023/12/10 05:33:40;;;;;;;6.18;1.00;;;;;;;7.58;71.23;99791.63;4997537;28;20054;-83
2023/12/10 05:36:08;;;;;;;11.98;1.40;;;;;;;7.56;71.55;99798.63;4979507;28;20050;-82
2023/12/10 05:38:35;;;;;;;8.40;1.10;;;;;;;7.62;70.58;99814.22;4988629;28;20216;-81
2023/12/10 05:41:02;;;;;;;11.45;1.42;;;;;;;7.44;71.77;99810.09;4986347;28;20042;-83
2023/12/10 05:43:29;;;;;;;7.22;1.17;;;;;;;7.49;71.25;99804.81;4988653;28;20065;-82
2023/12/10 05:45:56;;;;;;;10.20;2.13;;;;;;;7.49;71.30;99807.41;4997782;28;20049;-83
2023/12/10 05:48:22;;;;;;;6.00;1.30;;;;;;;7.48;71.30;99801.31;5005903;28;20484;-84
2023/12/10 05:50:50;;;;;;;5.13;1.10;;;;;;;7.62;70.65;99810.75;5001177;28;20049;-83
2023/12/10 05:53:16;;;;;;;7.78;1.20;;;;;;;7.76;70.38;99821.00;4998296;28;20448;-83
2023/12/10 05:55:43;;;;;;;7.07;0.95;;;;;;;7.78;70.25;99827.06;4991298;28;20042;-80
2023/12/10 05:58:10;;;;;;;9.90;1.60;;;;;;;7.75;69.72;99821.88;5009346;28;20459;-83
2023/12/10 06:00:37;;;;;;;8.43;1.38;;;;;;;7.77;69.59;99833.16;5000535;28;20044;-83
2023/12/10 06:03:04;;;;;;;5.75;0.63;;;;;;;7.74;70.13;99848.88;5009811;28;20096;-82
2023/12/10 06:05:31;;;;;;;7.22;1.15;;;;;;;7.94;68.98;99852.09;4997014;28;20099;-83
2023/12/10 06:07:58;;;;;;;11.43;1.52;;;;;;;7.91;68.85;99846.91;4980956;28;20057;-82
2023/12/10 06:10:24;;;;;;;6.93;1.10;;;;;;;7.74;69.98;99859.34;5014506;28;20050;-82
2023/12/10 06:12:51;;;;;;;8.32;1.20;;;;;;;7.65;70.39;99862.94;4999729;28;20065;-83
2023/12/10 06:15:18;;;;;;;5.72;1.02;;;;;;;7.71;70.00;99869.81;5000488;28;20118;-82
2023/12/10 06:17:45;;;;;;;7.95;1.10;;;;;;;7.65;70.19;99857.72;5003063;28;20049;-83
2023/12/10 06:20:12;;;;;;;8.23;1.05;;;;;;;7.65;69.81;99871.63;4993041;28;20136;-83
2023/12/10 06:22:39;;;;;;;6.88;1.10;;;;;;;7.64;69.68;99867.28;4998488;28;20050;-82
2023/12/10 06:25:06;;;;;;;9.07;0.82;;;;;;;7.68;69.56;99867.25;4988201;28;20046;-82
2023/12/10 06:27:33;;;;;;;8.63;0.90;;;;;;;7.53;70.55;99871.78;5013789;28;20050;-83
2023/12/10 06:30:00;;;;;;;6.07;1.17;;;;;;;7.59;70.56;99882.16;4999810;28;20057;-82
2023/12/10 06:32:27;;;;;;;5.63;1.15;;;;;;;7.61;70.19;99885.59;5004723;28;20046;-83
2023/12/10 06:34:55;;;;;;;6.60;1.27;;;;;;;7.74;69.20;99886.31;4993578;28;20057;-82
2023/12/10 06:37:22;;;;;;;5.25;0.80;;;;;;;7.68;69.53;99893.38;5011365;28;20054;-82
2023/12/10 06:39:49;;;;;;;9.65;0.93;;;;;;;7.71;69.15;99896.81;4999360;28;20411;-83
2023/12/10 06:42:15;;;;;;;8.85;1.15;;;;;;;7.63;69.69;99899.50;4967460;28;20132;-82
2023/12/10 06:44:42;;;;;;;4.55;0.93;;;;;;;7.65;69.06;99899.50;5001918;28;20046;-82
2023/12/10 06:47:09;;;;;;;3.95;1.00;;;;;;;7.48;70.17;99890.09;4991104;28;20054;-82
2023/12/10 06:49:36;;;;;;;5.00;0.75;;;;;;;7.60;69.20;99910.00;4994448;28;20056;-82
2023/12/10 06:52:03;;;;;;;10.55;1.33;;;;;;;7.59;69.58;99905.66;4992437;28;20074;-85
2023/12/10 06:54:30;;;;;;;8.27;1.20;;;;;;;7.48;69.74;99904.91;5005945;28;20050;-84
2023/12/10 06:56:57;;;;;;;6.22;1.30;;;;;;;7.47;70.32;99903.16;4997031;28;20050;-82
2023/12/10 06:59:25;;;;;;;6.45;1.50;;;;;;;7.56;69.31;99887.41;4998511;28;20052;-82
2023/12/10 07:01:52;;;;;;;12.95;1.13;;;;;;;7.44;70.32;99908.41;4985835;28;20054;-83
2023/12/10 07:04:19;;;;;;;7.18;1.20;;;;;;;7.63;68.88;99899.50;4996840;28;20066;-83
2023/12/10 07:06:46;;;;;;;3.22;1.00;;;;;;;7.49;69.69;99893.59;4986088;28;20108;-84
2023/12/10 07:09:13;;;;;;;9.38;1.63;;;;;;;7.46;69.91;99904.06;4990039;28;20046;-84
2023/12/10 07:11:40;;;;;;;7.72;1.10;;;;;;;7.25;71.04;99910.34;4995939;28;20049;-84
2023/12/10 07:14:06;;;;;;;7.10;1.10;;;;;;;7.24;71.17;99917.34;4996730;28;20050;-83
2023/12/10 07:16:33;;;;;;;10.32;1.40;;;;;;;7.35;70.34;99912.00;4999651;28;20065;-84
2023/12/10 07:19:00;;;;;;;8.45;1.55;;;;;;;7.32;70.45;99906.81;4991766;28;20109;-84
2023/12/10 07:21:27;;;;;;;5.40;0.88;;;;;;;7.52;69.37;99917.03;4984302;28;20050;-82
2023/12/10 07:23:54;;;;;;;8.40;1.30;;;;;;;7.56;68.99;99923.97;4994075;28;20107;-82
2023/12/10 07:26:24;;;;;;;8.85;1.58;;;;;;;7.43;69.92;99924.94;5001563;28;20044;-85
2023/12/10 07:28:51;;;;;;;8.93;1.08;;;;;;;7.25;70.98;99921.66;4997722;28;20045;-83
2023/12/10 07:31:18;;;;;;;6.10;1.02;;;;;;;7.38;70.47;99918.94;5002153;28;20069;-84
2023/12/10 07:33:45;;;;;;;6.07;1.02;;;;;;;7.36;70.26;99931.13;5002089;28;20052;-83
2023/12/10 07:36:12;;;;;;;4.32;1.00;;;;;;;7.21;71.18;99937.34;4994370;28;20064;-83
2023/12/10 07:38:39;;;;;;;5.65;1.25;;;;;;;7.24;70.92;99943.44;5005530;28;20041;-84
2023/12/10 07:41:06;;;;;;;6.97;1.15;;;;;;;7.23;71.17;99951.28;4997611;28;20045;-83
2023/12/10 07:43:33;;;;;;;7.20;1.00;;;;;;;7.38;70.32;99952.88;5006757;28;20060;-82
2023/12/10 07:46:00;;;;;;;7.55;0.77;;;;;;;7.17;71.51;99959.13;5005055;28;20049;-84
2023/12/10 07:48:27;;;;;;;9.20;1.65;;;;;;;7.04;72.08;99960.97;4998962;28;20129;-83
2023/12/10 07:50:54;;;;;;;6.00;1.13;;;;;;;7.32;70.42;99962.47;4996691;28;20049;-82
2023/12/10 07:53:21;;;;;;;10.32;0.90;;;;;;;7.42;70.11;99957.19;4991174;28;20063;-84
2023/12/10 07:55:48;;;;;;;5.60;0.80;;;;;;;7.37;70.46;99969.41;5012453;28;20243;-83
2023/12/10 07:58:15;;;;;;;4.28;0.90;;;;;;;7.38;70.25;99976.38;4990314;28;20043;-84
2023/12/10 08:00:46;;;;;;;8.13;1.20;;;;;;;7.49;70.29;99979.75;4994442;28;20038;-84
2023/12/10 08:03:14;;;;;;;11.50;2.00;;;;;;;7.30;71.18;99973.84;4983379;28;20050;-84
2023/12/10 08:05:42;;;;;;;7.47;1.48;;;;;;;7.42;70.56;99985.91;4992998;28;20070;-84
2023/12/10 08:08:09;;;;;;;5.95;1.10;;;;;;;7.44;70.79;99984.13;4981281;28;20096;-83
2023/12/10 08:10:36;;;;;;;10.90;1.55;;;;;;;7.48;70.81;99978.00;4997377;28;20114;-83
2023/12/10 08:13:02;;;;;;;10.27;1.25;;;;;;;7.57;70.49;99983.13;4997218;28;20119;-84
2023/12/10 08:15:29;;;;;;;6.82;1.00;;;;;;;7.62;70.48;99978.72;4989772;28;20048;-83
2023/12/10 08:17:56;;;;;;;7.47;0.73;;;;;;;7.58;70.51;99969.19;4984542;28;20061;-83
2023/12/10 08:20:23;;;;;;;10.07;1.05;;;;;;;7.58;71.11;99974.41;4995668;28;20050;-83
2023/12/10 08:22:50;;;;;;;7.82;1.20;;;;;;;7.72;69.97;99976.91;4994444;28;20133;-80
2023/12/10 08:25:17;;;;;;;8.65;1.10;;;;;;;7.77;69.80;99974.22;4992226;28;20140;-84
2023/12/10 08:27:44;;;;;;;8.27;1.33;;;;;;;7.82;69.72;99985.47;4992778;28;20038;-84
2023/12/10 08:30:12;;;;;;;4.72;0.98;;;;;;;7.80;70.02;100002.94;4995919;28;20088;-81
2023/12/10 08:32:39;;;;;;;12.93;2.08;;;;;;;7.89;69.21;100005.44;5007920;28;20105;-81
2023/12/10 08:35:07;;;;;;;9.68;1.38;;;;;;;7.98;68.86;100010.56;4986187;28;20054;-83
2023/12/10 08:37:33;;;;;;;10.00;1.27;;;;;;;7.80;70.42;100010.75;5012679;28;20044;-82
2023/12/10 08:40:02;;;;;;;6.20;1.30;;;;;;;7.99;68.73;100016.66;4987371;28;20537;-81
2023/12/10 08:42:30;;;;;;;7.20;1.23;;;;;;;7.88;69.90;100006.31;4993227;28;20129;-82
2023/12/10 08:44:58;;;;;;;7.78;1.30;;;;;;;7.91;69.68;100016.75;4997102;28;20046;-82
2023/12/10 08:47:25;;;;;;;5.85;1.10;;;;;;;8.01;69.22;100004.44;4992197;28;20056;-81
2023/12/10 08:49:52;;;;;;;9.02;1.17;;;;;;;8.00;68.92;100008.78;4983482;28;20050;-82
2023/12/10 08:52:19;;;;;;;12.82;0.90;;;;;;;7.99;69.38;100012.31;4991237;28;20057;-83
2023/12/10 08:54:46;;;;;;;6.65;1.20;;;;;;;8.05;68.78;100008.72;4989113;28;20053;-83
2023/12/10 08:57:13;;;;;;;8.95;1.00;;;;;;;8.01;69.25;100015.75;4995609;28;20047;-83
2023/12/10 08:59:40;;;;;;;6.00;1.63;;;;;;;7.98;69.62;100010.56;4991458;28;20068;-84
2023/12/10 09:02:07;;;;;;;11.65;1.38;;;;;;;7.93;69.89;100001.91;4989586;28;20077;-83
2023/12/10 09:04:34;;;;;;;3.60;0.77;;;;;;;8.07;68.81;100017.44;4996242;28;20046;-82
2023/12/10 09:07:01;;;;;;;7.22;1.05;;;;;;;8.00;69.55;100019.25;4982056;28;20108;-81
2023/12/10 09:09:28;;;;;;;7.75;1.48;;;;;;;8.06;69.27;100030.53;4994438;28;20099;-83
2023/12/10 09:11:55;;;;;;;6.95;1.13;;;;;;;7.99;69.74;100028.00;4979520;28;20051;-84
2023/12/10 09:14:22;;;;;;;3.83;0.90;;;;;;;7.89;70.34;100042.00;5003173;28;20054;-83
2023/12/10 09:16:49;;;;;;;5.68;1.30;;;;;;;7.96;70.39;100033.22;5011203;28;20058;-83
2023/12/10 09:19:17;;;;;;;8.93;1.60;;;;;;;7.96;70.30;100043.66;4975041;28;20049;-82
2023/12/10 09:21:45;;;;;;;8.82;1.20;;;;;;;8.05;69.89;100041.84;5005372;28;20133;-82
2023/12/10 09:24:12;;;;;;;5.97;1.10;;;;;;;7.91;71.14;100045.47;4999663;28;20068;-81
2023/12/10 09:26:39;;;;;;;5.65;0.80;;;;;;;7.96;70.30;100064.56;4993427;28;20383;-82
2023/12/10 09:29:06;;;;;;;6.28;0.82;;;;;;;7.96;70.91;100048.03;4990393;28;20042;-83
2023/12/10 09:31:33;;;;;;;4.05;0.73;;;;;;;7.93;70.64;100051.53;5002095;28;20111;-83
2023/12/10 09:34:00;;;;;;;7.90;1.67;;;;;;;8.01;70.14;100041.88;4994935;28;20049;-83
2023/12/10 09:36:27;;;;;;;9.27;1.25;;;;;;;8.04;70.38;100053.19;5002193;28;20059;-82
2023/12/10 09:38:54;;;;;;;5.18;1.02;;;;;;;7.98;71.13;100057.59;4987999;28;20077;-83
2023/12/10 09:41:21;;;;;;;8.15;1.13;;;;;;;8.14;70.51;100049.56;4998335;28;20050;-84
2023/12/10 09:43:48;;;;;;;6.90;0.90;;;;;;;8.17;70.04;100058.25;4980548;28;20056;-83
2023/12/10 09:46:15;;;;;;;11.13;1.00;;;;;;;8.09;71.17;100056.63;5000531;28;20048;-83
2023/12/10 09:48:43;;;;;;;6.78;1.20;;;;;;;8.12;71.18;100056.56;4985838;28;20042;-82
2023/12/10 09:51:11;;;;;;;7.60;1.15;;;;;;;8.09;71.66;100054.00;4991402;28;20106;-82
2023/12/10 09:53:37;;;;;;;6.80;2.10;;;;;;;8.21;70.67;100072.16;4999415;28;20050;-82
2023/12/10 09:56:05;;;;;;;6.53;1.83;;;;;;;8.21;70.73;100058.22;4983497;28;20050;-83
2023/12/10 09:58:31;;;;;;;6.22;1.13;;;;;;;8.29;70.29;100061.63;5001151;28;20041;-84
2023/12/10 10:01:03;;;;;;;9.15;1.80;;;;;;;8.23;71.03;100057.31;4985081;28;20505;-84
2023/12/10 10:03:30;;;;;;;7.15;1.48;;;;;;;8.27;70.74;100059.03;4995145;28;20056;-82
2023/12/10 10:05:56;;;;;;;6.72;1.27;;;;;;;8.24;70.51;100048.63;4992561;28;20421;-82
2023/12/10 10:08:23;;;;;;;7.70;1.13;;;;;;;8.23;70.87;100053.84;4991246;28;20129;-82
2023/12/10 10:10:51;;;;;;;6.80;1.13;;;;;;;8.12;71.43;100049.59;4999131;28;20042;-82
2023/12/10 10:13:18;;;;;;;6.70;1.00;;;;;;;8.18;70.86;100053.88;4975287;28;20051;-81
2023/12/10 10:15:45;;;;;;;5.75;1.20;;;;;;;8.23;70.62;100056.47;5004207;28;20107;-82
2023/12/10 10:18:14;;;;;;;9.07;1.17;;;;;;;8.14;71.15;100062.63;4991458;28;20202;-82
2023/12/10 10:20:42;;;;;;;6.30;1.52;;;;;;;8.20;71.17;100054.75;4998221;28;20050;-82
2023/12/10 10:23:09;;;;;;;9.60;1.00;;;;;;;8.26;71.04;100072.97;4975621;28;20049;-83
2023/12/10 10:25:36;;;;;;;5.93;1.23;;;;;;;8.23;71.33;100073.00;5023249;28;20125;-83
2023/12/10 10:28:07;;;;;;;9.13;1.23;;;;;;;8.25;71.63;100073.84;4998189;28;20058;-83
2023/12/10 10:30:34;;;;;;;9.95;1.85;;;;;;;8.34;71.16;100065.03;4990262;28;20046;-83
2023/12/10 10:33:01;;;;;;;9.32;1.83;;;;;;;8.40;71.14;100074.56;4980626;28;20062;-81
2023/12/10 10:35:28;;;;;;;5.38;1.02;;;;;;;8.46;70.84;100064.06;4998690;28;20145;-82
2023/12/10 10:37:58;;;;;;;5.63;1.17;;;;;;;8.58;70.33;100074.38;4985341;28;20046;-82
2023/12/10 10:40:27;;;;;;;7.20;1.20;;;;;;;8.52;71.29;100084.91;4989576;28;20078;-83
2023/12/10 10:42:54;;;;;;;3.38;0.93;;;;;;;8.59;70.94;100083.97;4996888;28;20050;-82
2023/12/10 10:45:21;;;;;;;9.50;1.17;;;;;;;8.54;71.21;100088.38;4999057;28;20058;-82
2023/12/10 10:47:49;;;;;;;5.75;1.08;;;;;;;8.56;70.91;100091.84;5004084;28;20130;-83
2023/12/10 10:50:17;;;;;;;9.13;1.30;;;;;;;8.51;71.28;100091.03;5001725;28;20053;-83
2023/12/10 10:52:53;;;;;;;6.03;0.75;;;;;;;8.53;71.21;100104.97;5003400;28;20136;-83
2023/12/10 10:55:20;;;;;;;5.03;1.08;;;;;;;8.57;70.92;100093.56;4985595;28;20046;-83
2023/12/10 10:57:47;;;;;;;4.97;0.75;;;;;;;8.58;70.99;100111.00;4999256;28;20038;-83
2023/12/10 11:00:17;;;;;;;5.05;1.13;;;;;;;8.57;71.29;100093.56;5002195;28;20045;-83
2023/12/10 11:02:52;;;;;;;6.70;1.70;;;;;;;8.59;71.37;100101.38;4996724;28;20046;-83
2023/12/10 11:05:35;;;;;;;7.03;1.23;;;;;;;8.59;71.67;100080.44;4966390;28;20051;-83
2023/12/10 11:08:06;;;;;;;;;;;;;;;8.59;72.03;100081.34;4987973;28;20082;-82
2023/12/10 11:10:34;;;;;;;8.55;1.17;;;;;;;8.61;72.01;100079.56;4998277;28;19921;-82
2023/12/10 11:13:01;;;;;;;7.45;0.80;;;;;;;8.62;72.51;100067.38;4993853;28;20076;-82
2023/12/10 11:15:29;;;;;;;8.85;1.25;;;;;;;8.62;73.23;100062.13;5001045;28;20056;-83
2023/12/10 11:18:05;;;;;;;5.65;0.80;;;;;;;8.64;73.22;100076.91;5000655;28;20096;-81
2023/12/10 11:20:43;;;;;;;5.90;1.17;;;;;;;8.68;73.40;100082.97;4992218;28;20124;-85
2023/12/10 11:23:12;;;;;;;8.65;1.02;;;;;;;8.66;73.30;100085.59;4994833;28;20042;-83
2023/12/10 11:25:40;;;;;;;7.28;1.30;;;;;;;8.60;74.08;100075.19;4993038;28;20046;-84
2023/12/10 11:28:13;;;;;;;7.95;1.30;;;;;;;8.57;74.22;100077.84;4995896;28;20174;-85
2023/12/10 11:30:40;;;;;;;4.82;0.80;;;;;;;8.58;74.56;100083.97;4998511;28;20056;-83
2023/12/10 11:33:08;;;;;;;11.63;1.70;;;;;;;8.52;75.31;100088.38;4994616;28;20041;-84
2023/12/10 11:35:36;;;;;;;6.35;1.00;;;;;;;8.49;75.52;100101.50;4997626;28;20041;-84
2023/12/10 11:38:04;;;;;;;12.77;1.63;;;;;;;8.43;75.93;100095.44;4999203;28;20050;-84